PAYA Airport Information

Runway Information
Runway 02 Length 6475 ft width 150 ft
Elevation 18 ft Threshold 0 ft Heading 45
Runway 20 Length 6475 ft Width 150 ft
Elevation 30 ft Threshold 0 ft Heading 225
Runway 11 Length 7745 ft width 150 ft
Elevation 32 ft Threshold 0 ft Heading 135
Runway 29 Length 7745 ft Width 150 ft
Elevation 19 ft Threshold 0 ft Heading 315
Airport Frequencies
Airport Navaids
Type NDB Name Ocean Cape Frequency 385 KHZ
Type VOR-DME Name Yakutat Frequency 113300 KHZ
Airport Weather Information & NOTAM
ADDS - METARS form results

(2132 UTC 16 July 2019)
Data provider http://aviationweather.gov/metar/data/
 
METAR text: PAYA 162119Z AUTO 09008KT 2SM -RA BR OVC013 14/13 A2971 RMK AO2 P0001 T01440133 TSNO
Conditions at: PAYA (YAKUTAT , AK, US) observed 2119 UTC 16 July 2019
Temperature: 14.4°C (58°F)
Dewpoint: 13.3°C (56°F) [RH = 93%]
Pressure (altimeter): 29.71 inches Hg (1006.2 mb)
Winds: from the E (90 degrees) at 9 MPH (8 knots; 4.1 m/s)
Visibility: 2.00 miles (3.22 km)
Ceiling: 1300 feet AGL
Clouds: overcast cloud deck at 1300 feet AGL
Weather: -RA BR  (light rain, mist)

METAR text: PAYA 162053Z AUTO 09010KT 6SM -RA BR BKN013 OVC018 14/13 A2972 RMK AO2 SLP063 P0004 60018 T01440133 58009 TSNO
Conditions at: PAYA (YAKUTAT , AK, US) observed 2053 UTC 16 July 2019
Temperature: 14.4°C (58°F)
Dewpoint: 13.3°C (56°F) [RH = 93%]
Pressure (altimeter): 29.72 inches Hg (1006.5 mb)
[Sea-level pressure: 1006.3 mb]
Winds: from the E (90 degrees) at 12 MPH (10 knots; 5.1 m/s)
Visibility: 6 miles (10 km)
Ceiling: 1300 feet AGL
Clouds: broken clouds at 1300 feet AGL
overcast cloud deck at 1800 feet AGL
Weather: -RA BR  (light rain, mist)

Forecast for: PAYA (YAKUTAT , AK, US)
Text: PAYA 161731Z 1618/1718 08010KT 5SM -RA BR SCT015 OVC025
Forecast period: 1800 UTC 16 July 2019 to 0600 UTC 17 July 2019
Forecast type: FROM: standard forecast or significant change
Winds: from the E (80 degrees) at 12 MPH (10 knots; 5.1 m/s)
Visibility: 5 miles (8 km)
Ceiling: 2500 feet AGL
Clouds: scattered clouds at 1500 feet AGL
overcast cloud deck at 2500 feet AGL
Weather: -RA BR  (light rain, mist)
Text: TEMPO 1618/1622 2SM -RA BR OVC015
Forecast period: 1800 to 2200 UTC 16 July 2019
Forecast type: TEMPORARY: The following changes expected for less than half the time period
Visibility: 2.00 miles (3.22 km)
Ceiling: 1500 feet AGL
Clouds: overcast cloud deck at 1500 feet AGL
Weather: -RA BR  (light rain, mist)
Text: FM170600 05005KT P6SM SCT025 BKN050 AMD LTD TO CLD VIS AND WIND
Forecast period: 0600 to 1800 UTC 17 July 2019
Forecast type: FROM: standard forecast or significant change
Winds: from the NE (50 degrees) at 6 MPH (5 knots; 2.6 m/s)
Visibility: 6 or more miles 10+ km)
Ceiling: 5000 feet AGL
Clouds: scattered clouds at 2500 feet AGL
broken clouds at 5000 feet AGL
Weather: no significant weather forecast for this period